createdAt,value
2018-03-15T00:00:54.405Z,11.77
2018-03-15T00:07:07.743Z,13.52
2018-03-15T00:10:11.296Z,13.30
2018-03-15T00:13:14.949Z,12.95
2018-03-15T00:16:18.382Z,11.00
2018-03-15T00:19:22.042Z,10.45
2018-03-15T00:22:25.517Z,13.80
2018-03-15T00:25:29.214Z,12.30
2018-03-15T00:28:32.767Z,11.02
2018-03-15T00:31:36.192Z,12.00
2018-03-15T00:34:39.582Z,12.60
2018-03-15T00:37:43.154Z,14.25
2018-03-15T00:40:46.920Z,12.40
2018-03-15T00:43:50.472Z,12.93
2018-03-15T00:46:54.105Z,12.18
2018-03-15T00:49:57.870Z,11.85
2018-03-15T00:53:01.415Z,13.52
2018-03-15T00:56:04.897Z,12.57
2018-03-15T00:59:10.143Z,14.07
2018-03-15T01:02:15.644Z,9.27
2018-03-15T01:05:19.210Z,11.02
2018-03-15T01:08:22.728Z,19.25
2018-03-15T01:11:27.012Z,15.95
2018-03-15T01:14:30.726Z,13.15
2018-03-15T01:17:37.485Z,14.95
2018-03-15T01:20:44.894Z,17.12
2018-03-15T01:23:48.446Z,22.42
2018-03-15T01:26:51.938Z,19.83
2018-03-15T01:29:55.471Z,21.02
2018-03-15T01:32:59.761Z,21.25
2018-03-15T01:36:03.234Z,19.85
2018-03-15T01:39:06.743Z,15.95
2018-03-15T01:42:10.370Z,17.10
2018-03-15T01:45:14.764Z,17.23
2018-03-15T01:48:18.249Z,16.05
2018-03-15T01:51:21.764Z,14.43
2018-03-15T01:54:25.181Z,40.28
2018-03-15T01:57:28.716Z,18.58
2018-03-15T02:00:32.134Z,72.20
2018-03-15T02:03:35.605Z,58.85
2018-03-15T02:06:39.871Z,44.50
2018-03-15T02:09:43.423Z,31.48
2018-03-15T02:12:46.884Z,37.63
2018-03-15T02:15:50.434Z,19.12
2018-03-15T02:18:53.912Z,23.33
2018-03-15T02:21:57.455Z,28.75
2018-03-15T02:25:00.948Z,32.47
2018-03-15T02:28:04.360Z,49.00
2018-03-15T02:31:07.921Z,55.80
2018-03-15T02:34:11.345Z,22.25
2018-03-15T02:37:14.830Z,24.90
2018-03-15T02:40:18.291Z,20.92
2018-03-15T02:43:22.498Z,19.87
2018-03-15T02:46:26.040Z,12.98
2018-03-15T02:49:29.665Z,18.55
2018-03-15T02:52:33.221Z,13.75
2018-03-15T02:55:36.715Z,16.85
2018-03-15T02:58:40.153Z,13.73
2018-03-15T03:01:43.676Z,20.42
2018-03-15T03:04:47.160Z,18.77
2018-03-15T03:07:50.558Z,17.92
2018-03-15T03:10:54.145Z,19.50
2018-03-15T03:13:57.848Z,16.60
2018-03-15T03:17:01.448Z,20.70
2018-03-15T03:20:04.958Z,21.50
2018-03-15T03:23:09.050Z,17.45
2018-03-15T03:26:12.582Z,16.65
2018-03-15T03:29:17.290Z,23.90
2018-03-15T03:32:20.833Z,15.43
2018-03-15T03:35:24.402Z,18.40
2018-03-15T03:38:27.914Z,19.67
2018-03-15T03:41:31.550Z,17.05
2018-03-15T03:44:35.078Z,21.33
2018-03-15T03:47:38.819Z,19.62
2018-03-15T03:50:42.301Z,17.30
2018-03-15T03:53:45.749Z,20.62
2018-03-15T03:56:50.440Z,21.25
2018-03-15T03:59:53.910Z,19.52
2018-03-15T04:02:58.140Z,19.58
2018-03-15T04:06:01.577Z,21.15
2018-03-15T04:09:04.976Z,19.65
2018-03-15T04:12:08.575Z,21.17
2018-03-15T04:15:12.231Z,18.08
2018-03-15T04:18:15.690Z,18.37
2018-03-15T04:21:22.098Z,21.73
2018-03-15T04:24:25.620Z,19.33
2018-03-15T04:27:29.143Z,22.17
2018-03-15T04:30:32.638Z,22.52
2018-03-15T04:33:36.263Z,22.05
2018-03-15T04:36:39.693Z,18.42
2018-03-15T04:39:43.930Z,24.27
2018-03-15T04:42:47.469Z,22.37
2018-03-15T04:45:51.916Z,20.80
2018-03-15T04:48:55.499Z,16.08
2018-03-15T04:51:58.914Z,19.27
2018-03-15T04:55:02.425Z,18.20
2018-03-15T04:58:06.779Z,16.75
2018-03-15T05:01:10.240Z,23.35
2018-03-15T05:04:13.689Z,22.35
2018-03-15T05:07:17.246Z,23.15
2018-03-15T05:10:20.748Z,24.40
2018-03-15T05:13:24.174Z,22.60
2018-03-15T05:16:27.615Z,19.17
2018-03-15T05:19:31.101Z,28.42
2018-03-15T05:22:34.787Z,22.92
2018-03-15T05:25:39.101Z,29.55
2018-03-15T05:28:42.645Z,30.17
2018-03-15T05:31:46.363Z,26.37
2018-03-15T05:34:49.971Z,26.65
2018-03-15T05:37:54.463Z,29.35
2018-03-15T05:40:58.682Z,27.75
2018-03-15T05:44:02.954Z,26.75
2018-03-15T05:47:06.426Z,23.85
2018-03-15T05:50:09.976Z,26.60
2018-03-15T05:53:14.225Z,22.00
2018-03-15T05:56:18.449Z,24.95
2018-03-15T05:59:21.918Z,23.92
2018-03-15T06:02:25.365Z,23.90
2018-03-15T06:05:28.811Z,25.80
2018-03-15T06:08:32.247Z,27.45
2018-03-15T06:11:36.019Z,29.65
2018-03-15T06:14:39.558Z,24.30
2018-03-15T06:17:43.018Z,25.15
2018-03-15T06:20:46.477Z,20.20
2018-03-15T06:23:49.951Z,19.58
2018-03-15T06:26:53.458Z,28.05
2018-03-15T06:29:56.885Z,24.48
2018-03-15T06:33:00.387Z,11.73
2018-03-15T06:36:03.820Z,23.62
2018-03-15T06:39:07.305Z,25.92
2018-03-15T06:42:10.725Z,27.08
2018-03-15T06:45:14.207Z,22.05
2018-03-15T06:48:18.066Z,21.70
2018-03-15T06:51:21.590Z,23.40
2018-03-15T06:54:25.162Z,25.40
2018-03-15T06:57:28.670Z,24.70
2018-03-15T07:00:32.935Z,28.35
2018-03-15T07:03:36.649Z,28.35
2018-03-15T07:06:40.135Z,34.42
2018-03-15T07:09:43.664Z,28.40
2018-03-15T07:12:47.853Z,30.35
2018-03-15T07:15:51.665Z,25.67
2018-03-15T07:18:55.135Z,32.92
2018-03-15T07:21:58.691Z,33.20
2018-03-15T07:25:02.187Z,30.65
2018-03-15T07:28:05.689Z,25.70
2018-03-15T07:31:09.199Z,24.10
2018-03-15T07:34:12.690Z,35.05
2018-03-15T07:37:16.175Z,36.28
2018-03-15T07:40:19.716Z,26.98
2018-03-15T07:43:24.109Z,26.02
2018-03-15T07:46:27.620Z,24.08
2018-03-15T07:49:31.152Z,31.52
2018-03-15T07:52:35.577Z,25.00
2018-03-15T07:55:39.115Z,24.58
2018-03-15T07:58:42.639Z,20.88
2018-03-15T08:01:46.201Z,18.30
2018-03-15T08:04:49.779Z,22.52
2018-03-15T08:07:53.308Z,23.60
2018-03-15T08:10:56.879Z,22.83
2018-03-15T08:14:00.454Z,19.00
2018-03-15T08:17:04.362Z,24.30
2018-03-15T08:20:07.899Z,24.42
2018-03-15T08:23:11.430Z,20.60
2018-03-15T08:26:15.727Z,18.50
2018-03-15T08:29:20.108Z,23.65
2018-03-15T08:32:23.840Z,18.30
2018-03-15T08:35:28.217Z,24.60
2018-03-15T08:38:32.892Z,14.60
2018-03-15T08:41:38.027Z,21.62
2018-03-15T08:44:41.628Z,20.60
2018-03-15T08:47:46.076Z,25.20
2018-03-15T08:50:50.927Z,17.60
2018-03-15T08:53:54.601Z,17.73
2018-03-15T08:56:58.927Z,18.35
2018-03-15T09:03:12.878Z,13.25
2018-03-15T09:06:16.500Z,18.00
2018-03-15T09:09:21.186Z,16.95
2018-03-15T09:12:25.748Z,20.85
2018-03-15T09:15:29.460Z,20.70
2018-03-15T09:18:35.872Z,13.88
2018-03-15T09:21:40.446Z,9.15
2018-03-15T09:24:44.019Z,16.35
2018-03-15T09:27:48.397Z,17.70
2018-03-15T09:30:54.882Z,19.00
2018-03-15T09:33:58.713Z,17.95
2018-03-15T09:37:06.552Z,16.80
2018-03-15T09:40:11.676Z,16.47
2018-03-15T09:43:15.459Z,14.90
2018-03-15T09:46:20.508Z,16.97
2018-03-15T09:49:24.657Z,18.53
2018-03-15T09:52:33.388Z,17.23
2018-03-15T09:55:37.902Z,16.73
2018-03-15T09:58:41.828Z,20.53
2018-03-15T10:01:50.138Z,15.03
2018-03-15T10:04:57.235Z,15.40
2018-03-15T10:08:01.642Z,15.87
2018-03-15T10:11:06.298Z,16.47
2018-03-15T10:14:10.885Z,15.87
2018-03-15T10:17:16.764Z,15.47
2018-03-15T10:20:21.295Z,13.77
2018-03-15T10:23:25.071Z,13.67
2018-03-15T10:26:28.620Z,13.80
2018-03-15T10:29:33.272Z,13.87
2018-03-15T10:32:39.118Z,13.33
2018-03-15T10:35:43.794Z,13.27
2018-03-15T10:38:48.454Z,12.60
2018-03-15T10:41:53.288Z,15.03
2018-03-15T10:44:57.856Z,12.17
2018-03-15T10:48:02.490Z,15.67
2018-03-15T10:51:06.164Z,12.03
2018-03-15T10:54:09.954Z,13.17
2018-03-15T10:57:13.544Z,13.57
2018-03-15T11:00:17.048Z,13.63
2018-03-15T11:07:30.168Z,15.83
2018-03-15T11:14:46.861Z,11.67
2018-03-15T11:18:20.052Z,14.67
2018-03-15T12:19:10.816Z,16.37
2018-03-15T12:27:40.773Z,15.07
2018-03-15T12:50:22.840Z,13.10
2018-03-15T12:57:17.740Z,17.47
2018-03-15T13:00:23.997Z,13.10
2018-03-15T13:07:03.425Z,13.33
2018-03-15T13:13:48.886Z,10.53
2018-03-15T13:20:59.190Z,14.70
2018-03-15T13:30:53.784Z,11.77
2018-03-15T13:41:47.709Z,13.23
2018-03-15T13:44:51.272Z,10.83
2018-03-15T13:47:55.205Z,14.13
2018-03-15T13:51:06.892Z,13.20
2018-03-15T13:54:13.217Z,11.43
2018-03-15T13:57:32.244Z,15.00
2018-03-15T14:00:39.957Z,12.43
2018-03-15T14:03:57.021Z,12.60
2018-03-15T14:07:04.541Z,9.33
2018-03-15T15:11:20.638Z,9.53
2018-03-15T15:18:05.926Z,10.13
2018-03-15T15:22:03.530Z,13.83
2018-03-15T15:25:07.865Z,10.33
2018-03-15T15:28:12.646Z,11.57
2018-03-15T15:31:18.338Z,11.60
2018-03-15T15:34:22.078Z,12.37
2018-03-15T15:37:26.642Z,13.03
2018-03-15T15:40:30.924Z,11.83
2018-03-15T15:46:44.187Z,13.37
2018-03-15T15:49:47.712Z,11.87
2018-03-15T15:52:51.202Z,15.53
2018-03-15T15:55:54.623Z,11.87
2018-03-15T15:58:58.221Z,10.27
2018-03-15T16:02:01.800Z,13.77
2018-03-15T16:05:05.290Z,10.67
2018-03-15T16:08:08.624Z,9.27
2018-03-15T16:11:12.082Z,13.90
2018-03-15T16:14:15.450Z,12.27
2018-03-15T16:17:18.917Z,23.67
2018-03-15T16:20:22.391Z,17.70
2018-03-15T16:23:26.212Z,11.53
2018-03-15T16:26:29.670Z,13.40
2018-03-15T16:29:33.966Z,13.40
2018-03-15T16:32:37.480Z,11.93
2018-03-15T16:35:40.954Z,14.70
2018-03-15T16:38:44.475Z,14.93
2018-03-15T16:41:47.959Z,23.57
2018-03-15T16:44:51.524Z,17.87
2018-03-15T16:47:55.031Z,17.23
2018-03-15T16:50:58.870Z,11.97
2018-03-15T16:54:02.346Z,15.77
2018-03-15T16:57:05.776Z,12.93
2018-03-15T17:00:09.285Z,16.93
2018-03-15T17:03:12.675Z,16.40
2018-03-15T17:06:16.346Z,17.60
2018-03-15T17:09:19.742Z,17.10
2018-03-15T17:12:23.138Z,16.87
2018-03-15T17:15:26.616Z,16.98
2018-03-15T17:18:30.079Z,15.02
2018-03-15T17:21:33.518Z,11.35
2018-03-15T17:24:37.082Z,13.77
2018-03-15T17:27:40.574Z,15.25
2018-03-15T17:30:43.948Z,19.17
2018-03-15T17:33:47.377Z,18.10
2018-03-15T17:36:50.866Z,18.50
2018-03-15T17:39:54.729Z,21.02
2018-03-15T17:42:58.918Z,16.23
2018-03-15T17:46:02.287Z,19.08
2018-03-15T17:49:05.692Z,11.57
2018-03-15T17:52:09.198Z,17.87
2018-03-15T17:55:12.614Z,20.33
2018-03-15T17:58:16.054Z,17.23
2018-03-15T18:01:20.179Z,16.98
2018-03-15T18:04:23.691Z,19.80
2018-03-15T18:07:27.110Z,16.05
2018-03-15T18:10:30.661Z,20.45
2018-03-15T18:13:34.825Z,14.10
2018-03-15T18:16:38.358Z,23.77
2018-03-15T18:19:42.514Z,15.63
2018-03-15T18:22:45.955Z,12.73
2018-03-15T18:25:49.334Z,10.43
2018-03-15T18:28:52.887Z,14.23
2018-03-15T18:31:57.073Z,20.10
2018-03-15T18:35:00.588Z,22.37
2018-03-15T18:38:04.816Z,22.02
2018-03-15T18:41:08.396Z,22.85
2018-03-15T18:44:12.461Z,22.55
2018-03-15T18:47:16.708Z,18.23
2018-03-15T18:50:20.187Z,23.85
2018-03-15T18:53:24.429Z,19.12
2018-03-15T18:56:28.053Z,20.65
2018-03-15T18:59:31.527Z,17.48
2018-03-15T19:02:35.090Z,21.37
2018-03-15T19:05:38.573Z,17.33
2018-03-15T19:08:42.039Z,19.08
2018-03-15T19:11:45.534Z,19.70
2018-03-15T19:14:48.950Z,23.05
2018-03-15T19:17:52.393Z,19.40
2018-03-15T19:20:56.729Z,14.00
2018-03-15T19:24:00.095Z,16.58
2018-03-15T19:27:03.526Z,16.48
2018-03-15T19:30:07.785Z,19.60
2018-03-15T19:33:11.200Z,17.42
2018-03-15T19:36:14.687Z,16.65
2018-03-15T19:39:18.072Z,16.40
2018-03-15T19:42:21.493Z,9.98
2018-03-15T19:45:24.967Z,19.55
2018-03-15T19:48:28.342Z,9.43
2018-03-15T19:51:31.728Z,15.60
2018-03-15T19:54:35.194Z,19.15
2018-03-15T19:57:38.678Z,23.65
2018-03-15T20:00:42.094Z,14.48
2018-03-15T20:03:45.486Z,20.62
2018-03-15T20:06:48.910Z,23.75
2018-03-15T20:09:52.466Z,22.75
2018-03-15T20:12:56.855Z,16.40
2018-03-15T20:16:00.305Z,12.05
2018-03-15T20:19:20.494Z,25.85
2018-03-15T20:22:29.560Z,17.92
2018-03-15T20:25:33.828Z,27.80
2018-03-15T20:28:43.770Z,18.45
2018-03-15T20:31:47.250Z,30.05
2018-03-15T20:34:50.744Z,19.85
2018-03-15T20:37:54.188Z,22.73
2018-03-15T20:41:03.879Z,26.02
2018-03-15T20:44:07.352Z,27.30
2018-03-15T20:47:17.199Z,23.87
2018-03-15T20:50:21.403Z,22.77
2018-03-15T20:53:24.812Z,35.22
2018-03-15T20:56:28.260Z,21.77
2018-03-15T20:59:31.857Z,21.90
2018-03-15T21:02:35.304Z,29.67
2018-03-15T21:05:38.792Z,29.30
2018-03-15T21:08:42.264Z,26.00
2018-03-15T21:11:46.449Z,30.08
2018-03-15T21:14:49.909Z,28.12
2018-03-15T21:17:53.479Z,27.98
2018-03-15T21:20:56.872Z,34.05
2018-03-15T21:24:00.260Z,24.95
2018-03-15T21:27:04.591Z,26.20
2018-03-15T21:30:07.929Z,26.52
2018-03-15T21:33:11.362Z,30.62
2018-03-15T21:36:14.889Z,32.90
2018-03-15T21:39:18.361Z,31.00
2018-03-15T21:42:21.855Z,29.42
2018-03-15T21:45:25.258Z,28.45
2018-03-15T21:48:28.697Z,34.58
2018-03-15T21:51:32.160Z,33.63
2018-03-15T21:54:35.874Z,30.48
2018-03-15T21:57:39.282Z,32.92
2018-03-15T22:00:42.741Z,31.35
2018-03-15T22:03:46.296Z,30.00
2018-03-15T22:06:49.820Z,35.03
2018-03-15T22:09:53.234Z,34.75
2018-03-15T22:12:56.764Z,29.65
2018-03-15T22:16:00.191Z,36.00
2018-03-15T22:19:03.752Z,31.52
2018-03-15T22:22:07.185Z,37.25
2018-03-15T22:25:11.104Z,32.10
2018-03-15T22:28:14.609Z,35.70
2018-03-15T22:31:18.048Z,25.55
2018-03-15T22:34:21.410Z,32.42
2018-03-15T22:37:24.855Z,30.40
2018-03-15T22:40:28.285Z,30.70
2018-03-15T22:43:31.784Z,36.53
2018-03-15T22:46:35.207Z,42.65
2018-03-15T22:49:38.825Z,44.92
2018-03-15T22:52:42.199Z,28.75
2018-03-15T22:55:45.765Z,38.28
2018-03-15T22:58:49.937Z,32.17
2018-03-15T23:01:53.325Z,42.70
2018-03-15T23:04:56.695Z,40.30
2018-03-15T23:08:00.117Z,47.42
2018-03-15T23:11:03.498Z,40.75
2018-03-15T23:14:07.009Z,44.08
2018-03-15T23:17:10.418Z,43.38
2018-03-15T23:20:13.952Z,39.97
2018-03-15T23:23:18.137Z,46.13
2018-03-15T23:26:21.585Z,40.58
2018-03-15T23:29:25.379Z,27.08
2018-03-15T23:32:29.643Z,42.62
2018-03-15T23:35:33.824Z,42.58
2018-03-15T23:38:37.370Z,45.33
2018-03-15T23:41:40.892Z,32.05
2018-03-15T23:44:44.403Z,45.58
2018-03-15T23:47:47.779Z,25.83
2018-03-15T23:50:51.161Z,33.47
2018-03-15T23:53:54.554Z,43.70
2018-03-15T23:56:58.696Z,42.17
